createdAt,value
2018-11-02T00:01:20.119Z,93954.34
2018-11-02T00:03:48.320Z,93956.63
2018-11-02T00:06:16.570Z,93953.69
2018-11-02T00:08:44.863Z,93957.29
2018-11-02T00:11:13.089Z,93956.14
2018-11-02T00:13:41.676Z,93959.42
2018-11-02T00:16:10.049Z,93959.58
2018-11-02T00:18:38.260Z,93957.63
2018-11-02T00:21:06.517Z,93952.92
2018-11-02T00:23:34.772Z,93955.36
2018-11-02T00:26:03.109Z,93963.49
2018-11-02T00:28:31.393Z,93958.28
2018-11-02T00:30:59.669Z,93962.52
2018-11-02T00:33:27.830Z,93968.04
2018-11-02T00:35:56.053Z,93974.07
2018-11-02T00:38:24.281Z,93970.33
2018-11-02T00:40:52.479Z,93969.67
2018-11-02T00:43:20.763Z,93977.17
2018-11-02T00:45:49.077Z,93971.65
2018-11-02T00:48:17.307Z,93966.11
2018-11-02T00:50:45.535Z,93957.64
2018-11-02T00:53:13.812Z,93957.31
2018-11-02T00:55:42.043Z,93953.41
2018-11-02T00:58:10.344Z,93957.64
2018-11-02T01:00:38.579Z,93959.43
2018-11-02T01:03:06.820Z,93962.85
2018-11-02T01:05:35.103Z,93965.45
2018-11-02T01:08:03.408Z,93968.39
2018-11-02T01:10:31.621Z,93965.45
2018-11-02T01:13:00.271Z,93969.34
2018-11-02T01:15:28.457Z,93962.20
2018-11-02T01:17:56.648Z,93966.42
2018-11-02T01:20:25.314Z,93956.98
2018-11-02T01:22:53.640Z,93960.55
2018-11-02T01:25:21.868Z,93956.50
2018-11-02T01:27:50.127Z,93961.55
2018-11-02T01:30:18.415Z,93966.42
2018-11-02T01:32:46.635Z,93965.63
2018-11-02T01:35:14.834Z,93969.68
2018-11-02T01:37:43.029Z,93972.55
2018-11-02T01:40:11.262Z,93971.31
2018-11-02T01:42:39.439Z,93977.51
2018-11-02T01:45:08.009Z,93981.08
2018-11-02T01:47:36.272Z,93978.13
2018-11-02T01:50:05.259Z,93983.03
2018-11-02T01:52:33.499Z,93976.84
2018-11-02T01:55:02.660Z,93978.63
2018-11-02T01:57:30.881Z,93986.72
2018-11-02T01:59:59.125Z,93980.52
2018-11-02T02:02:27.342Z,93975.47
2018-11-02T02:04:55.571Z,93979.70
2018-11-02T02:07:23.923Z,93984.10
2018-11-02T02:09:52.253Z,93987.16
2018-11-02T02:12:20.716Z,93986.34
2018-11-02T02:14:48.928Z,93986.49
2018-11-02T02:17:17.115Z,93985.19
2018-11-02T02:19:45.447Z,93994.33
2018-11-02T02:22:13.672Z,93987.98
2018-11-02T02:24:41.912Z,93992.21
2018-11-02T02:27:10.104Z,93986.22
2018-11-02T02:29:38.351Z,93983.12
2018-11-02T02:32:06.640Z,93984.61
2018-11-02T02:34:34.881Z,93984.59
2018-11-02T02:37:03.207Z,93981.95
2018-11-02T02:39:31.408Z,93991.73
2018-11-02T02:41:59.672Z,93994.66
2018-11-02T02:44:27.858Z,94001.53
2018-11-02T02:46:56.051Z,94004.80
2018-11-02T02:49:24.606Z,94015.99
2018-11-02T02:51:52.829Z,94014.55
2018-11-02T02:54:21.060Z,94018.09
2018-11-02T02:56:49.384Z,94023.29
2018-11-02T02:59:17.593Z,94018.75
2018-11-02T03:01:45.830Z,94022.53
2018-11-02T03:04:14.040Z,94017.53
2018-11-02T03:06:42.216Z,94004.99
2018-11-02T03:09:10.422Z,93993.94
2018-11-02T03:11:38.620Z,93992.15
2018-11-02T03:14:06.899Z,93988.08
2018-11-02T03:16:35.077Z,93984.98
2018-11-02T03:19:04.562Z,93990.37
2018-11-02T03:21:32.725Z,93991.82
2018-11-02T03:24:00.976Z,93992.81
2018-11-02T03:26:29.213Z,93995.73
2018-11-02T03:28:57.479Z,94010.72
2018-11-02T03:31:25.789Z,94013.16
2018-11-02T03:33:54.023Z,94015.59
2018-11-02T03:36:22.460Z,94016.89
2018-11-02T03:38:50.700Z,94027.31
2018-11-02T03:41:18.893Z,94031.86
2018-11-02T03:43:48.342Z,94047.49
2018-11-02T03:46:16.535Z,94044.23
2018-11-02T03:48:44.728Z,94051.41
2018-11-02T03:51:13.303Z,94051.73
2018-11-02T03:53:41.529Z,94043.59
2018-11-02T03:56:09.938Z,94044.91
2018-11-02T03:58:38.199Z,94059.24
2018-11-02T04:01:06.501Z,94049.45
2018-11-02T04:03:34.713Z,94050.92
2018-11-02T04:06:03.188Z,94053.03
2018-11-02T04:08:31.396Z,94055.64
2018-11-02T04:10:59.586Z,94062.80
2018-11-02T04:13:27.880Z,94062.14
2018-11-02T04:15:56.192Z,94047.52
2018-11-02T04:18:24.392Z,94043.58
2018-11-02T04:20:52.856Z,94043.91
2018-11-02T04:23:21.233Z,94034.14
2018-11-02T04:25:49.412Z,94042.11
2018-11-02T04:28:17.596Z,94039.68
2018-11-02T04:30:45.896Z,94043.27
2018-11-02T04:33:14.028Z,94040.48
2018-11-02T04:35:42.219Z,94046.17
2018-11-02T04:38:10.439Z,94039.68
2018-11-02T04:40:38.659Z,94038.55
2018-11-02T04:43:07.412Z,94040.66
2018-11-02T04:45:37.596Z,94054.97
2018-11-02T04:48:07.485Z,94063.12
2018-11-02T04:50:35.833Z,94075.97
2018-11-02T04:53:04.452Z,94079.39
2018-11-02T04:55:33.721Z,94079.39
2018-11-02T04:58:02.025Z,94082.02
2018-11-02T05:00:30.694Z,94082.66
2018-11-02T05:02:59.066Z,94084.95
2018-11-02T05:05:27.544Z,94079.41
2018-11-02T05:07:55.752Z,94070.47
2018-11-02T05:10:24.002Z,94072.56
2018-11-02T05:12:52.304Z,94075.68
2018-11-02T05:15:20.493Z,94075.50
2018-11-02T05:17:48.729Z,94080.07
2018-11-02T05:20:16.911Z,94083.00
2018-11-02T05:22:45.394Z,94086.25
2018-11-02T05:25:13.609Z,94097.34
2018-11-02T05:27:41.808Z,94094.40
2018-11-02T05:30:10.737Z,94086.08
2018-11-02T05:32:39.317Z,94087.86
2018-11-02T05:35:07.692Z,94094.37
2018-11-02T05:37:35.902Z,94088.19
2018-11-02T05:40:05.415Z,94091.12
2018-11-02T05:42:33.638Z,94093.09
2018-11-02T05:45:01.916Z,94093.40
2018-11-02T05:47:30.349Z,94084.61
2018-11-02T05:49:58.428Z,94095.03
2018-11-02T05:52:26.667Z,94094.73
2018-11-02T05:54:55.233Z,94105.78
2018-11-02T05:57:23.460Z,94113.96
2018-11-02T05:59:51.658Z,94104.51
2018-11-02T06:02:19.867Z,94113.62
2018-11-02T06:04:48.096Z,94116.87
2018-11-02T06:07:16.344Z,94120.48
2018-11-02T06:09:44.590Z,94114.75
2018-11-02T06:12:13.283Z,94125.69
2018-11-02T06:14:41.510Z,94123.41
2018-11-02T06:17:09.767Z,94130.89
2018-11-02T06:19:37.992Z,94127.80
2018-11-02T06:22:06.257Z,94135.13
2018-11-02T06:24:34.497Z,94141.31
2018-11-02T06:27:03.220Z,94142.28
2018-11-02T06:29:31.823Z,94140.66
2018-11-02T06:32:00.083Z,94146.20
2018-11-02T06:34:28.313Z,94153.38
2018-11-02T06:36:56.789Z,94155.01
2018-11-02T06:39:25.008Z,94154.67
2018-11-02T06:41:53.223Z,94156.98
2018-11-02T06:44:21.480Z,94155.34
2018-11-02T06:46:49.735Z,94154.70
2018-11-02T06:49:17.941Z,94154.70
2018-11-02T06:51:46.206Z,94154.70
2018-11-02T06:54:14.808Z,94157.63
2018-11-02T06:56:43.051Z,94165.13
2018-11-02T06:59:11.392Z,94172.97
2018-11-02T07:01:39.509Z,94180.14
2018-11-02T07:04:07.770Z,94183.38
2018-11-02T07:06:35.938Z,94184.72
2018-11-02T07:09:06.500Z,94181.10
2018-11-02T07:11:34.738Z,94193.83
2018-11-02T07:14:03.373Z,94198.08
2018-11-02T07:16:31.576Z,94196.10
2018-11-02T07:18:59.738Z,94192.55
2018-11-02T07:21:27.894Z,94191.88
2018-11-02T07:23:56.757Z,94200.03
2018-11-02T07:26:25.011Z,94200.37
2018-11-02T07:28:53.177Z,94201.67
2018-11-02T07:31:22.339Z,94212.08
2018-11-02T07:33:50.645Z,94215.02
2018-11-02T07:36:18.820Z,94219.27
2018-11-02T07:39:09.677Z,94213.36
2018-11-02T07:41:37.848Z,94215.14
2018-11-02T07:44:06.388Z,94213.95
2018-11-02T07:46:34.637Z,94218.34
2018-11-02T07:49:03.944Z,94222.72
2018-11-02T07:51:32.151Z,94218.44
2018-11-02T07:54:00.324Z,94222.02
2018-11-02T07:56:28.496Z,94222.61
2018-11-02T07:58:57.396Z,94226.22
2018-11-02T08:01:25.857Z,94226.24
2018-11-02T08:03:53.998Z,94235.23
2018-11-02T08:06:22.235Z,94228.84
2018-11-02T08:08:51.012Z,94232.77
2018-11-02T08:11:19.660Z,94237.67
2018-11-02T08:13:47.824Z,94241.25
2018-11-02T08:16:16.021Z,94237.84
2018-11-02T08:18:44.321Z,94243.86
2018-11-02T08:21:12.427Z,94237.17
2018-11-02T08:23:40.651Z,94250.06
2018-11-02T08:26:08.891Z,94246.84
2018-11-02T08:28:37.108Z,94253.91
2018-11-02T08:31:05.709Z,94256.89
2018-11-02T08:33:33.932Z,94253.58
2018-11-02T08:36:03.059Z,94249.66
2018-11-02T08:38:31.272Z,94260.00
2018-11-02T08:40:59.486Z,94262.56
2018-11-02T08:43:27.763Z,94261.87
2018-11-02T08:45:55.940Z,94267.14
2018-11-02T08:48:24.111Z,94266.52
2018-11-02T08:50:52.462Z,94275.08
2018-11-02T08:53:20.624Z,94272.80
2018-11-02T08:55:48.780Z,94271.88
2018-11-02T08:58:17.169Z,94267.00
2018-11-02T09:00:45.264Z,94261.77
2018-11-02T09:03:13.512Z,94269.55
2018-11-02T09:05:41.728Z,94277.51
2018-11-02T09:08:10.154Z,94280.97
2018-11-02T09:10:41.300Z,94283.36
2018-11-02T09:13:09.531Z,94284.84
2018-11-02T09:15:37.819Z,94284.15
2018-11-02T09:18:06.144Z,94288.37
2018-11-02T09:20:34.400Z,94294.23
2018-11-02T09:23:02.678Z,94296.55
2018-11-02T09:25:30.976Z,94297.17
2018-11-02T09:27:59.419Z,94302.11
2018-11-02T09:30:27.532Z,94301.75
2018-11-02T09:32:55.799Z,94298.21
2018-11-02T09:35:24.115Z,94296.96
2018-11-02T09:37:52.912Z,94291.38
2018-11-02T09:40:21.309Z,94295.03
2018-11-02T09:42:49.662Z,94295.03
2018-11-02T09:45:17.807Z,94299.28
2018-11-02T09:47:46.079Z,94298.51
2018-11-02T09:50:14.408Z,94296.84
2018-11-02T09:52:42.649Z,94307.56
2018-11-02T09:55:13.411Z,94301.93
2018-11-02T09:57:42.526Z,94300.79
2018-11-02T10:00:11.804Z,94290.36
2018-11-02T10:02:40.310Z,94283.30
2018-11-02T10:05:09.629Z,94281.41
2018-11-02T10:07:38.799Z,94275.70
2018-11-02T10:10:08.947Z,94262.77
2018-11-02T10:12:37.356Z,94270.70
2018-11-02T10:15:08.528Z,94269.67
2018-11-02T10:17:36.840Z,94263.36
2018-11-02T10:20:06.232Z,94264.31
2018-11-02T10:22:34.523Z,94258.11
2018-11-02T10:25:02.778Z,94244.53
2018-11-02T10:27:31.216Z,94241.36
2018-11-02T10:30:00.756Z,94240.16
2018-11-02T10:32:29.200Z,94242.88
2018-11-02T10:34:58.470Z,94239.22
2018-11-02T10:37:26.812Z,94239.52
2018-11-02T10:39:55.175Z,94240.14
2018-11-02T10:42:23.610Z,94232.79
2018-11-02T10:44:52.092Z,94236.79
2018-11-02T10:47:20.750Z,94244.93
2018-11-02T10:49:48.975Z,94246.29
2018-11-02T10:52:17.287Z,94248.97
2018-11-02T10:54:45.678Z,94260.63
2018-11-02T10:57:13.843Z,94273.91
2018-11-02T10:59:42.172Z,94278.36
2018-11-02T11:02:16.099Z,94279.92
2018-11-02T11:04:44.341Z,94274.05
2018-11-02T11:07:12.649Z,94269.13
2018-11-02T11:09:40.932Z,94273.03
2018-11-02T11:12:09.365Z,94271.08
2018-11-02T11:14:37.837Z,94271.42
2018-11-02T11:17:06.185Z,94270.79
2018-11-02T11:19:34.425Z,94265.78
2018-11-02T11:22:03.018Z,94268.98
2018-11-02T11:24:31.308Z,94274.20
2018-11-02T11:26:59.610Z,94274.61
2018-11-02T11:29:27.898Z,94272.13
2018-11-02T11:31:56.151Z,94264.86
2018-11-02T11:34:24.417Z,94263.52
2018-11-02T11:36:52.742Z,94267.77
2018-11-02T11:39:20.986Z,94269.27
2018-11-02T11:41:49.240Z,94279.87
2018-11-02T11:44:17.573Z,94293.26
2018-11-02T11:46:45.927Z,94289.54
2018-11-02T11:49:14.303Z,94287.45
2018-11-02T11:51:42.520Z,94281.47
2018-11-02T11:54:10.848Z,94276.74
2018-11-02T11:56:39.129Z,94282.69
2018-11-02T11:59:08.083Z,94277.48
2018-11-02T12:01:36.356Z,94279.77
2018-11-02T12:04:05.185Z,94278.71
2018-11-02T12:06:33.834Z,94283.73
2018-11-02T12:09:02.217Z,94293.69
2018-11-02T12:11:30.456Z,94299.52
2018-11-02T12:13:59.123Z,94306.34
2018-11-02T12:16:27.422Z,94308.58
2018-11-02T12:18:55.780Z,94314.61
2018-11-02T12:21:24.160Z,94319.91
2018-11-02T12:23:52.395Z,94311.20
2018-11-02T12:26:20.656Z,94316.10
2018-11-02T12:28:48.981Z,94317.52
2018-11-02T12:31:17.175Z,94321.72
2018-11-02T12:33:45.728Z,94315.85
2018-11-02T12:36:14.010Z,94314.06
2018-11-02T12:38:42.220Z,94315.70
2018-11-02T12:41:10.452Z,94312.11
2018-11-02T12:43:38.931Z,94300.30
2018-11-02T12:46:07.067Z,94300.78
2018-11-02T12:48:35.434Z,94309.65
2018-11-02T12:51:03.639Z,94314.35
2018-11-02T12:53:31.873Z,94313.39
2018-11-02T12:56:00.098Z,94309.86
2018-11-02T12:58:28.385Z,94307.87
2018-11-02T13:00:56.615Z,94319.38
2018-11-02T13:03:24.903Z,94307.36
2018-11-02T13:05:53.225Z,94311.23
2018-11-02T13:08:21.496Z,94317.89
2018-11-02T13:10:49.994Z,94316.75
2018-11-02T13:13:18.273Z,94312.75
2018-11-02T13:15:47.543Z,94319.02
2018-11-02T13:18:19.252Z,94325.20
2018-11-02T13:20:47.644Z,94328.88
2018-11-02T13:23:15.942Z,94335.73
2018-11-02T13:25:44.314Z,94327.83
2018-11-02T13:28:12.408Z,94318.29
2018-11-02T13:30:41.052Z,94320.45
2018-11-02T13:33:09.147Z,94316.27
2018-11-02T13:35:37.375Z,94307.98
2018-11-02T13:38:05.733Z,94307.64
2018-11-02T13:40:33.944Z,94313.17
2018-11-02T13:43:02.324Z,94316.34
2018-11-02T13:45:30.460Z,94318.70
2018-11-02T13:47:58.732Z,94318.70
2018-11-02T13:50:27.142Z,94319.05
2018-11-02T13:52:55.259Z,94311.64
2018-11-02T13:55:23.519Z,94315.76
2018-11-02T13:57:51.780Z,94317.13
2018-11-02T14:00:20.005Z,94312.88
2018-11-02T14:02:48.260Z,94320.11
2018-11-02T14:05:17.135Z,94327.22
2018-11-02T14:07:45.379Z,94327.63
2018-11-02T14:10:13.744Z,94325.38
2018-11-02T14:12:42.176Z,94325.09
2018-11-02T14:15:13.673Z,94312.31
2018-11-02T14:17:42.401Z,94322.30
2018-11-02T14:20:11.633Z,94327.30
2018-11-02T14:22:40.099Z,94329.84
2018-11-02T14:25:11.425Z,94331.80
2018-11-02T14:27:39.698Z,94332.17
2018-11-02T14:30:10.975Z,94327.99
2018-11-02T14:32:39.252Z,94337.69
2018-11-02T14:35:08.053Z,94341.30
2018-11-02T14:37:36.626Z,94346.73
2018-11-02T14:40:06.408Z,94348.36
2018-11-02T14:42:34.639Z,94352.30
2018-11-02T14:45:03.097Z,94350.29
2018-11-02T14:47:31.756Z,94361.50
2018-11-02T14:50:00.044Z,94365.48
2018-11-02T14:52:28.311Z,94373.58
2018-11-02T14:54:56.685Z,94375.80
2018-11-02T14:57:24.946Z,94381.55
2018-11-02T14:59:53.276Z,94375.04
2018-11-02T15:02:21.497Z,94383.30
2018-11-02T15:04:49.760Z,94388.22
2018-11-02T15:07:17.982Z,94392.11
2018-11-02T15:09:46.239Z,94393.14
2018-11-02T15:12:14.600Z,94398.11
2018-11-02T15:14:42.856Z,94401.39
2018-11-02T15:17:11.143Z,94394.72
2018-11-02T15:19:39.407Z,94402.97
2018-11-02T15:22:07.753Z,94403.59
2018-11-02T15:24:36.025Z,94401.00
2018-11-02T15:27:04.688Z,94402.16
2018-11-02T15:29:32.973Z,94407.23
2018-11-02T15:32:01.767Z,94403.35
2018-11-02T15:34:30.017Z,94405.27
2018-11-02T15:36:58.283Z,94402.97
2018-11-02T15:39:26.572Z,94401.98
2018-11-02T15:41:54.841Z,94405.59
2018-11-02T15:44:23.388Z,94402.98
2018-11-02T15:46:51.640Z,94404.38
2018-11-02T15:49:20.189Z,94398.49
2018-11-02T15:51:48.456Z,94406.41
2018-11-02T15:54:16.808Z,94407.03
2018-11-02T15:56:45.371Z,94402.21
2018-11-02T15:59:13.611Z,94408.39
2018-11-02T16:01:41.896Z,94418.91
2018-11-02T16:04:10.147Z,94418.96
2018-11-02T16:06:38.519Z,94416.39
2018-11-02T16:09:11.693Z,94422.65
2018-11-02T16:11:39.962Z,94435.67
2018-11-02T16:14:08.285Z,94436.81
2018-11-02T16:16:36.594Z,94429.27
2018-11-02T16:19:04.922Z,94432.27
2018-11-02T16:21:33.433Z,94442.17
2018-11-02T16:24:02.077Z,94455.15
2018-11-02T16:26:30.308Z,94461.57
2018-11-02T16:28:58.612Z,94470.22
2018-11-02T16:31:26.848Z,94465.73
2018-11-02T16:33:55.125Z,94466.35
2018-11-02T16:36:23.716Z,94466.68
2018-11-02T16:38:51.960Z,94482.07
2018-11-02T16:41:20.233Z,94487.97
2018-11-02T16:43:48.635Z,94500.24
2018-11-02T16:46:16.741Z,94504.72
2018-11-02T16:48:45.037Z,94502.42
2018-11-02T16:51:13.292Z,94490.64
2018-11-02T16:53:41.512Z,94488.10
2018-11-02T16:56:10.052Z,94487.02
2018-11-02T16:58:38.329Z,94485.38
2018-11-02T17:01:06.703Z,94494.24
2018-11-02T17:03:35.056Z,94488.63
2018-11-02T17:06:04.667Z,94492.88
2018-11-02T17:08:32.924Z,94495.47
2018-11-02T17:11:01.525Z,94499.40
2018-11-02T17:13:29.800Z,94513.56
2018-11-02T17:15:58.157Z,94514.23
2018-11-02T17:18:26.556Z,94517.86
2018-11-02T17:20:54.849Z,94524.42
2018-11-02T17:23:23.433Z,94530.95
2018-11-02T17:25:51.748Z,94533.84
2018-11-02T17:28:20.010Z,94539.33
2018-11-02T17:30:48.300Z,94533.84
2018-11-02T17:33:16.609Z,94534.23
2018-11-02T17:35:44.911Z,94536.52
2018-11-02T17:38:13.144Z,94544.39
2018-11-02T17:40:41.385Z,94544.39
2018-11-02T17:43:09.624Z,94549.94
2018-11-02T17:45:37.888Z,94544.75
2018-11-02T17:48:06.359Z,94550.95
2018-11-02T17:50:34.551Z,94558.18
2018-11-02T17:53:02.859Z,94552.91
2018-11-02T17:55:31.239Z,94553.58
2018-11-02T17:57:59.532Z,94555.05
2018-11-02T18:00:27.812Z,94564.34
2018-11-02T18:02:56.342Z,94564.84
2018-11-02T18:05:24.581Z,94573.22
2018-11-02T18:07:52.827Z,94575.18
2018-11-02T18:10:21.132Z,94579.09
2018-11-02T18:12:49.394Z,94585.27
2018-11-02T18:15:17.636Z,94578.79
2018-11-02T18:17:45.929Z,94578.64
2018-11-02T18:20:15.151Z,94584.06
2018-11-02T18:22:43.482Z,94594.22
2018-11-02T18:25:12.675Z,94592.26
2018-11-02T18:27:41.512Z,94590.92
2018-11-02T18:30:11.360Z,94592.56
2018-11-02T18:32:39.663Z,94594.37
2018-11-02T18:35:08.618Z,94604.67
2018-11-02T18:37:37.773Z,94609.58
2018-11-02T18:40:08.967Z,94609.25
2018-11-02T18:42:37.364Z,94609.27
2018-11-02T18:45:08.543Z,94604.67
2018-11-02T18:47:42.988Z,94607.95
2018-11-02T18:50:11.839Z,94613.50
2018-11-02T18:52:40.973Z,94622.51
2018-11-02T18:55:09.413Z,94621.05
2018-11-02T18:57:38.171Z,94616.78
2018-11-02T19:00:08.154Z,94616.77
2018-11-02T19:02:36.464Z,94615.13
2018-11-02T19:05:09.257Z,94614.18
2018-11-02T19:07:37.713Z,94609.26
2018-11-02T19:10:06.733Z,94613.84
2018-11-02T19:12:35.137Z,94619.89
2018-11-02T19:15:03.568Z,94616.45
2018-11-02T19:17:31.789Z,94616.45
2018-11-02T19:20:00.140Z,94618.42
2018-11-02T19:22:28.334Z,94614.81
2018-11-02T19:24:56.911Z,94622.67
2018-11-02T19:27:25.269Z,94632.80
2018-11-02T19:29:53.475Z,94631.50
2018-11-02T19:32:21.851Z,94631.83
2018-11-02T19:34:50.696Z,94634.44
2018-11-02T19:37:18.772Z,94637.70
2018-11-02T19:39:46.988Z,94637.06
2018-11-02T19:42:15.255Z,94637.23
2018-11-02T19:44:43.514Z,94638.70
2018-11-02T19:47:11.798Z,94640.34
2018-11-02T19:49:40.080Z,94641.65
2018-11-02T19:52:08.372Z,94644.27
2018-11-02T19:54:36.675Z,94649.49
2018-11-02T19:57:05.082Z,94661.91
2018-11-02T19:59:33.355Z,94660.44
2018-11-02T20:02:01.689Z,94662.89
2018-11-02T20:04:29.963Z,94662.58
2018-11-02T20:06:58.233Z,94660.92
2018-11-02T20:09:26.598Z,94664.53
2018-11-02T20:11:55.050Z,94660.94
2018-11-02T20:14:23.288Z,94660.28
2018-11-02T20:16:51.524Z,94651.61
2018-11-02T20:19:19.876Z,94656.36
2018-11-02T20:21:48.123Z,94664.52
2018-11-02T20:24:16.433Z,94656.86
2018-11-02T20:26:44.792Z,94662.58
2018-11-02T20:29:13.036Z,94663.38
2018-11-02T20:31:41.369Z,94669.44
2018-11-02T20:34:09.709Z,94673.67
2018-11-02T20:36:37.986Z,94672.66
2018-11-02T20:39:09.866Z,94677.90
2018-11-02T20:41:38.071Z,94672.84
2018-11-02T20:44:06.484Z,94674.28
2018-11-02T20:46:35.423Z,94676.11
2018-11-02T20:49:03.982Z,94676.25
2018-11-02T20:51:32.294Z,94674.98
2018-11-02T20:54:00.861Z,94677.59
2018-11-02T20:56:29.290Z,94681.82
2018-11-02T20:58:57.724Z,94674.64
2018-11-02T21:01:26.021Z,94678.56
2018-11-02T21:03:55.051Z,94685.77
2018-11-02T21:06:23.474Z,94684.77
2018-11-02T21:08:52.038Z,94685.74
2018-11-02T21:11:20.324Z,94687.02
2018-11-02T21:13:48.609Z,94691.61
2018-11-02T21:16:16.921Z,94694.26
2018-11-02T21:18:45.530Z,94698.45
2018-11-02T21:21:13.945Z,94699.75
2018-11-02T21:23:42.757Z,94692.54
2018-11-02T21:26:11.114Z,94693.14
2018-11-02T21:28:40.164Z,94697.28
2018-11-02T21:31:08.428Z,94695.49
2018-11-02T21:33:36.857Z,94688.95
2018-11-02T21:36:05.057Z,94690.60
2018-11-02T21:38:34.621Z,94687.98
2018-11-02T21:41:02.847Z,94689.78
2018-11-02T21:43:31.468Z,94700.42
2018-11-02T21:45:59.831Z,94696.87
2018-11-02T21:48:28.189Z,94695.72
2018-11-02T21:50:56.499Z,94699.16
2018-11-02T21:53:24.794Z,94701.40
2018-11-02T21:55:53.170Z,94699.11
2018-11-02T21:58:22.640Z,94702.06
2018-11-02T22:00:50.805Z,94694.86
2018-11-02T22:03:19.132Z,94694.45
2018-11-02T22:05:47.462Z,94697.06
2018-11-02T22:08:15.703Z,94703.67
2018-11-02T22:10:43.974Z,94708.56
2018-11-02T22:13:12.244Z,94710.25
2018-11-02T22:15:40.560Z,94708.27
2018-11-02T22:18:09.110Z,94709.91
2018-11-02T22:20:37.363Z,94712.82
2018-11-02T22:23:05.742Z,94711.66
2018-11-02T22:25:34.033Z,94724.52
2018-11-02T22:28:02.278Z,94722.86
2018-11-02T22:30:30.550Z,94719.61
2018-11-02T22:32:58.787Z,94727.41
2018-11-02T22:35:27.007Z,94722.22
2018-11-02T22:37:55.245Z,94727.46
2018-11-02T22:40:23.489Z,94729.54
2018-11-02T22:42:52.012Z,94727.74
2018-11-02T22:45:20.255Z,94724.17
2018-11-02T22:47:54.447Z,94723.20
2018-11-02T22:50:22.713Z,94727.31
2018-11-02T22:52:50.968Z,94729.34
2018-11-02T22:55:19.482Z,94717.00
2018-11-02T22:57:47.696Z,94717.98
2018-11-02T23:00:17.328Z,94723.53
2018-11-02T23:02:46.774Z,94721.89
2018-11-02T23:05:15.125Z,94713.41
2018-11-02T23:07:43.940Z,94716.31
2018-11-02T23:10:12.296Z,94711.58
2018-11-02T23:12:41.180Z,94712.55
2018-11-02T23:15:10.348Z,94711.37
2018-11-02T23:17:38.681Z,94703.19
2018-11-02T23:20:10.377Z,94705.45
2018-11-02T23:22:38.600Z,94709.38
2018-11-02T23:25:08.519Z,94713.31
2018-11-02T23:27:36.846Z,94707.75
2018-11-02T23:30:07.114Z,94717.28
2018-11-02T23:32:35.335Z,94711.37
2018-11-02T23:35:03.612Z,94709.44
2018-11-02T23:37:32.168Z,94711.42
2018-11-02T23:40:00.437Z,94716.06
2018-11-02T23:42:29.026Z,94714.54
2018-11-02T23:44:57.279Z,94719.78
2018-11-02T23:47:25.449Z,94720.47
2018-11-02T23:49:53.965Z,94710.36
2018-11-02T23:52:22.824Z,94704.44
2018-11-02T23:54:51.129Z,94700.80
2018-11-02T23:57:19.429Z,94695.86
2018-11-02T23:59:47.661Z,94688.36
